Time;durP1;ratioP1;P1;durP2;ratioP2;P2;SDS_P1;SDS_P2;PMS_P1;PMS_P2;Temp;Humidity;BMP_temperature;BMP_pressure;BME280_temperature;BME280_humidity;BME280_pressure;Samples;Min_cycle;Max_cycle;Signal;HPM_P1;HPM_P2
2022/01/13 00:00:11;;;;;;;0.67;0.67;;;;;;;;;;5050851;28;20679;-61
2022/01/13 00:02:37;;;;;;;0.60;0.60;;;;;;;;;;5050866;28;20489;-61
2022/01/13 00:05:04;;;;;;;0.60;0.60;;;;;;;;;;5050984;28;20590;-61
2022/01/13 00:07:30;;;;;;;0.60;0.60;;;;;;;;;;5050858;28;20410;-61
2022/01/13 00:09:56;;;;;;;0.60;0.60;;;;;;;;;;5049536;28;20246;-61
2022/01/13 00:12:27;;;;;;;0.60;0.60;;;;;;;;;;5050310;28;20614;-61
2022/01/13 00:17:58;;;;;;;0.70;0.70;;;;;;;;;;5049540;28;20191;-61
2022/01/13 00:23:39;;;;;;;0.60;0.60;;;;;;;;;;5029453;28;20192;-65
2022/01/13 00:25:36;;;;;;;0.60;0.60;;;;;;;;;;5029875;28;20184;-66
2022/01/13 00:28:08;;;;;;;0.68;0.68;;;;;;;;;;5032420;28;20181;-66
2022/01/13 00:30:34;;;;;;;0.70;0.70;;;;;;;;;;5034494;28;20242;-66
2022/01/13 00:33:01;;;;;;;0.70;0.70;;;;;;;;;;5034543;28;20257;-67
2022/01/13 00:35:27;;;;;;;0.60;0.60;;;;;;;;;;5034015;28;20407;-66
2022/01/13 00:37:53;;;;;;;0.70;0.70;;;;;;;;;;5034916;28;20188;-68
2022/01/13 00:40:19;;;;;;;0.63;0.63;;;;;;;;;;5033400;28;20193;-68
2022/01/13 00:42:45;;;;;;;0.60;0.60;;;;;;;;;;5034280;28;20422;-66
2022/01/13 00:45:14;;;;;;;0.50;0.50;;;;;;;;;;5033322;28;20500;-66
2022/01/13 00:47:40;;;;;;;0.60;0.60;;;;;;;;;;5034520;28;20416;-66
2022/01/13 00:50:07;;;;;;;0.70;0.70;;;;;;;;;;5034619;28;20197;-65
2022/01/13 00:52:33;;;;;;;0.70;0.70;;;;;;;;;;5033186;28;20173;-65
2022/01/13 00:55:03;;;;;;;0.60;0.60;;;;;;;;;;5034315;28;20227;-65
2022/01/13 00:57:31;;;;;;;0.60;0.60;;;;;;;;;;5034701;28;20197;-66
2022/01/13 00:59:57;;;;;;;0.70;0.70;;;;;;;;;;5034460;28;20205;-66
2022/01/13 01:02:23;;;;;;;0.60;0.60;;;;;;;;;;5034187;28;20618;-65
2022/01/13 01:04:49;;;;;;;0.60;0.60;;;;;;;;;;5034548;28;20458;-65
2022/01/13 01:07:15;;;;;;;0.70;0.70;;;;;;;;;;5034168;28;20954;-63
2022/01/13 01:09:48;;;;;;;0.80;0.80;;;;;;;;;;5034330;28;20215;-65
2022/01/13 01:12:14;;;;;;;0.60;0.60;;;;;;;;;;5034757;28;20212;-65
2022/01/13 01:14:46;;;;;;;0.60;0.60;;;;;;;;;;5034055;28;20173;-66
2022/01/13 01:17:16;;;;;;;0.70;0.70;;;;;;;;;;5034286;28;20246;-67
2022/01/13 01:19:46;;;;;;;0.70;0.70;;;;;;;;;;5033792;28;20197;-66
2022/01/13 01:25:19;;;;;;;0.70;0.70;;;;;;;;;;5034118;28;20173;-65
2022/01/13 01:27:48;;;;;;;0.60;0.60;;;;;;;;;;5033737;28;20298;-67
2022/01/13 01:32:55;;;;;;;0.60;0.60;;;;;;;;;;5033567;28;20165;-65
2022/01/13 01:35:25;;;;;;;0.70;0.70;;;;;;;;;;5033968;28;20168;-66
2022/01/13 01:37:51;;;;;;;0.70;0.70;;;;;;;;;;5034043;28;20303;-65
2022/01/13 01:40:17;;;;;;;0.60;0.60;;;;;;;;;;5033888;28;20192;-66
2022/01/13 01:42:46;;;;;;;0.60;0.60;;;;;;;;;;5033811;28;20204;-66
2022/01/13 01:45:13;;;;;;;0.60;0.60;;;;;;;;;;5033730;28;20260;-65
2022/01/13 01:47:40;;;;;;;0.70;0.70;;;;;;;;;;5033797;28;20200;-65
2022/01/13 01:50:17;;;;;;;0.60;0.60;;;;;;;;;;5032480;28;20212;-66
2022/01/13 01:52:43;;;;;;;0.65;0.65;;;;;;;;;;5031972;28;20263;-66
2022/01/13 01:55:09;;;;;;;0.60;0.60;;;;;;;;;;5033883;28;20205;-66
2022/01/13 01:57:35;;;;;;;0.60;0.60;;;;;;;;;;5033683;28;20420;-65
2022/01/13 02:00:02;;;;;;;0.70;0.70;;;;;;;;;;5033632;28;20193;-66
2022/01/13 02:02:29;;;;;;;0.60;0.60;;;;;;;;;;5033302;28;20315;-63
2022/01/13 02:04:55;;;;;;;0.60;0.60;;;;;;;;;;5033450;28;20256;-66
2022/01/13 02:07:21;;;;;;;0.60;0.60;;;;;;;;;;5033124;28;20272;-65
2022/01/13 02:09:51;;;;;;;0.63;0.63;;;;;;;;;;5033089;28;20436;-65
2022/01/13 02:12:29;;;;;;;0.70;0.70;;;;;;;;;;5033178;28;20185;-65
2022/01/13 02:15:15;;;;;;;0.60;0.60;;;;;;;;;;5033248;28;20157;-65
2022/01/13 02:17:42;;;;;;;0.60;0.60;;;;;;;;;;5032790;28;20291;-65
2022/01/13 02:20:09;;;;;;;0.70;0.70;;;;;;;;;;5032736;28;20228;-65
2022/01/13 02:22:35;;;;;;;0.60;0.60;;;;;;;;;;5032454;28;20204;-65
2022/01/13 02:25:02;;;;;;;0.60;0.60;;;;;;;;;;5032776;28;20177;-66
2022/01/13 02:27:28;;;;;;;0.60;0.60;;;;;;;;;;5032706;28;20204;-64
2022/01/13 02:29:53;;;;;;;0.70;0.70;;;;;;;;;;5033095;28;20548;-64
2022/01/13 02:32:20;;;;;;;0.50;0.50;;;;;;;;;;5032518;28;20260;-66
2022/01/13 02:34:47;;;;;;;0.60;0.60;;;;;;;;;;5032399;28;20420;-66
2022/01/13 02:37:13;;;;;;;0.60;0.60;;;;;;;;;;5032335;28;20202;-65
2022/01/13 02:39:41;;;;;;;0.60;0.60;;;;;;;;;;5032611;28;20177;-66
2022/01/13 02:42:12;;;;;;;0.60;0.60;;;;;;;;;;5032851;28;20553;-64
2022/01/13 02:44:53;;;;;;;0.60;0.60;;;;;;;;;;5031924;28;20191;-65
2022/01/13 02:47:35;;;;;;;0.70;0.70;;;;;;;;;;5032672;28;20169;-65
2022/01/13 02:50:03;;;;;;;0.60;0.60;;;;;;;;;;5030798;28;20201;-66
2022/01/13 02:52:29;;;;;;;0.70;0.70;;;;;;;;;;5032163;28;20176;-66
2022/01/13 02:54:55;;;;;;;0.70;0.70;;;;;;;;;;5032100;28;20183;-65
2022/01/13 02:57:21;;;;;;;0.60;0.60;;;;;;;;;;5030991;28;20416;-65
2022/01/13 02:59:47;;;;;;;0.60;0.60;;;;;;;;;;5032220;28;20243;-66
2022/01/13 03:02:13;;;;;;;0.70;0.70;;;;;;;;;;5032146;28;20216;-66
2022/01/13 03:04:45;;;;;;;0.70;0.70;;;;;;;;;;5030750;28;20415;-65
2022/01/13 03:07:11;;;;;;;0.60;0.60;;;;;;;;;;5032601;28;20168;-66
2022/01/13 03:09:37;;;;;;;0.70;0.70;;;;;;;;;;5032368;28;20179;-66
2022/01/13 03:12:03;;;;;;;0.70;0.70;;;;;;;;;;5032219;28;20407;-66
2022/01/13 03:14:29;;;;;;;0.70;0.70;;;;;;;;;;5031617;28;20608;-66
2022/01/13 03:16:55;;;;;;;0.60;0.60;;;;;;;;;;5031840;28;20540;-66
2022/01/13 03:19:22;;;;;;;0.60;0.60;;;;;;;;;;5031574;28;20925;-66
2022/01/13 03:21:48;;;;;;;0.60;0.60;;;;;;;;;;5031746;28;20882;-66
2022/01/13 03:24:14;;;;;;;0.60;0.60;;;;;;;;;;5031440;28;20218;-66
2022/01/13 03:26:42;;;;;;;0.60;0.60;;;;;;;;;;5031805;28;20177;-66
2022/01/13 03:31:37;;;;;;;0.60;0.60;;;;;;;;;;5032043;28;20200;-65
2022/01/13 03:34:03;;;;;;;0.60;0.60;;;;;;;;;;5031642;28;20235;-66
2022/01/13 03:36:29;;;;;;;0.60;0.60;;;;;;;;;;5031908;28;20678;-65
2022/01/13 03:38:55;;;;;;;0.60;0.60;;;;;;;;;;5032021;28;20204;-65
2022/01/13 03:41:22;;;;;;;0.80;0.80;;;;;;;;;;5032012;28;20623;-65
2022/01/13 03:43:51;;;;;;;0.70;0.70;;;;;;;;;;5031292;28;20199;-67
2022/01/13 03:46:18;;;;;;;0.60;0.60;;;;;;;;;;5031766;28;20168;-66
2022/01/13 03:48:44;;;;;;;0.60;0.60;;;;;;;;;;5031662;28;20177;-66
2022/01/13 03:51:10;;;;;;;0.70;0.70;;;;;;;;;;5030442;28;20262;-66
2022/01/13 03:53:39;;;;;;;0.70;0.70;;;;;;;;;;5031389;28;20876;-66
2022/01/13 03:56:23;;;;;;;0.60;0.60;;;;;;;;;;5031425;28;20176;-67
2022/01/13 03:59:08;;;;;;;0.60;0.60;;;;;;;;;;5030252;28;20604;-65
2022/01/13 04:01:46;;;;;;;0.60;0.60;;;;;;;;;;5031730;28;20208;-65
2022/01/13 04:04:12;;;;;;;0.60;0.60;;;;;;;;;;5033724;28;20173;-66
2022/01/13 04:06:40;;;;;;;0.60;0.60;;;;;;;;;;5035618;28;20178;-66
2022/01/13 04:09:08;;;;;;;0.60;0.60;;;;;;;;;;5035436;28;20407;-66
2022/01/13 04:11:34;;;;;;;0.55;0.55;;;;;;;;;;5035426;28;20199;-66
2022/01/13 04:14:02;;;;;;;0.60;0.60;;;;;;;;;;5035382;28;20177;-65
2022/01/13 04:16:33;;;;;;;0.60;0.60;;;;;;;;;;5035711;28;20407;-67
2022/01/13 04:19:04;;;;;;;0.70;0.70;;;;;;;;;;5035558;28;20180;-68
2022/01/13 04:21:31;;;;;;;0.70;0.70;;;;;;;;;;5035115;28;20209;-66
2022/01/13 04:23:57;;;;;;;0.68;0.68;;;;;;;;;;5035778;28;20294;-66
2022/01/13 04:26:29;;;;;;;0.70;0.70;;;;;;;;;;5035360;28;20231;-65
2022/01/13 04:29:19;;;;;;;0.70;0.70;;;;;;;;;;5035603;28;20226;-67
2022/01/13 04:31:48;;;;;;;0.60;0.60;;;;;;;;;;5035670;28;20173;-65
2022/01/13 04:34:14;;;;;;;0.70;0.70;;;;;;;;;;5035607;28;20259;-65
2022/01/13 04:36:40;;;;;;;0.70;0.70;;;;;;;;;;5035527;28;20227;-65
2022/01/13 04:39:07;;;;;;;0.70;0.70;;;;;;;;;;5035463;28;20177;-66
2022/01/13 04:41:35;;;;;;;0.60;0.60;;;;;;;;;;5034891;28;20205;-67
2022/01/13 04:44:03;;;;;;;0.70;0.70;;;;;;;;;;5034984;28;20168;-66
2022/01/13 04:46:29;;;;;;;0.60;0.60;;;;;;;;;;5035096;28;20165;-66
2022/01/13 04:48:55;;;;;;;0.70;0.70;;;;;;;;;;5034999;28;20169;-65
2022/01/13 04:51:21;;;;;;;0.60;0.60;;;;;;;;;;5033573;28;20447;-66
2022/01/13 04:53:47;;;;;;;0.60;0.60;;;;;;;;;;5035413;28;20652;-67
2022/01/13 04:56:25;;;;;;;0.57;0.57;;;;;;;;;;5034289;28;20779;-66
2022/01/13 04:58:51;;;;;;;0.70;0.70;;;;;;;;;;5036787;28;20502;-66
2022/01/13 05:01:17;;;;;;;0.60;0.60;;;;;;;;;;5035964;28;20714;-65
2022/01/13 05:03:43;;;;;;;0.60;0.60;;;;;;;;;;5037170;28;20176;-64
2022/01/13 05:06:09;;;;;;;0.67;0.67;;;;;;;;;;5035839;28;20432;-66
2022/01/13 05:08:35;;;;;;;0.60;0.60;;;;;;;;;;5034646;28;20802;-63
2022/01/13 05:11:01;;;;;;;0.70;0.70;;;;;;;;;;5034253;28;20208;-65
2022/01/13 05:13:27;;;;;;;0.70;0.70;;;;;;;;;;5033406;28;20447;-65
2022/01/13 05:15:55;;;;;;;0.60;0.60;;;;;;;;;;5034289;28;20282;-65
2022/01/13 05:21:01;;;;;;;0.60;0.60;;;;;;;;;;5034026;28;20319;-65
2022/01/13 05:23:27;;;;;;;0.70;0.70;;;;;;;;;;5034029;28;20181;-63
2022/01/13 05:25:53;;;;;;;0.70;0.70;;;;;;;;;;5034140;28;20853;-64
2022/01/13 05:28:19;;;;;;;0.70;0.70;;;;;;;;;;5033999;28;20426;-65
2022/01/13 05:30:45;;;;;;;0.60;0.60;;;;;;;;;;5034154;28;20572;-64
2022/01/13 05:33:11;;;;;;;0.70;0.70;;;;;;;;;;5033841;28;20410;-65
2022/01/13 05:35:37;;;;;;;0.60;0.60;;;;;;;;;;5032795;28;20452;-65
2022/01/13 05:38:07;;;;;;;0.57;0.57;;;;;;;;;;5033910;28;20195;-66
2022/01/13 05:40:33;;;;;;;0.70;0.70;;;;;;;;;;5033643;28;20604;-66
2022/01/13 05:42:59;;;;;;;0.60;0.60;;;;;;;;;;5033700;28;20640;-64
2022/01/13 05:45:29;;;;;;;0.70;0.70;;;;;;;;;;5033887;28;20215;-65
2022/01/13 05:47:56;;;;;;;0.70;0.70;;;;;;;;;;5033321;28;20173;-65
2022/01/13 05:50:22;;;;;;;0.60;0.60;;;;;;;;;;5033612;28;20216;-65
2022/01/13 05:52:48;;;;;;;0.63;0.63;;;;;;;;;;5033692;28;20235;-64
2022/01/13 05:55:14;;;;;;;0.70;0.70;;;;;;;;;;5033845;28;20404;-64
2022/01/13 05:57:40;;;;;;;0.70;0.70;;;;;;;;;;5033529;28;20412;-65
2022/01/13 06:00:08;;;;;;;0.70;0.70;;;;;;;;;;5033562;28;20253;-63
2022/01/13 06:02:34;;;;;;;0.70;0.70;;;;;;;;;;5032269;28;20209;-66
2022/01/13 06:05:00;;;;;;;0.70;0.70;;;;;;;;;;5033401;28;20187;-64
2022/01/13 06:07:26;;;;;;;0.60;0.60;;;;;;;;;;5033181;28;20529;-65
2022/01/13 06:09:52;;;;;;;0.60;0.60;;;;;;;;;;5032763;28;20458;-65
2022/01/13 06:12:20;;;;;;;0.80;0.80;;;;;;;;;;5032632;28;20195;-65
2022/01/13 06:14:46;;;;;;;0.70;0.70;;;;;;;;;;5032489;28;20423;-66
2022/01/13 06:17:12;;;;;;;0.60;0.60;;;;;;;;;;5033028;28;20196;-66
2022/01/13 06:19:38;;;;;;;0.60;0.60;;;;;;;;;;5032683;28;20644;-66
2022/01/13 06:22:04;;;;;;;0.60;0.60;;;;;;;;;;5031396;22;20333;-64
2022/01/13 06:24:29;;;;;;;0.60;0.60;;;;;;;;;;5010011;28;20843;-64
2022/01/13 06:26:55;;;;;;;0.60;0.60;;;;;;;;;;5011479;28;20182;-66
2022/01/13 06:29:21;;;;;;;0.70;0.70;;;;;;;;;;5012249;28;20443;-64
2022/01/13 06:31:47;;;;;;;0.60;0.60;;;;;;;;;;5012396;28;20425;-64
2022/01/13 06:34:13;;;;;;;0.60;0.60;;;;;;;;;;5011978;28;20409;-64
2022/01/13 06:36:39;;;;;;;0.70;0.70;;;;;;;;;;5012172;28;20547;-64
2022/01/13 06:39:05;;;;;;;0.70;0.70;;;;;;;;;;5012017;28;20428;-63
2022/01/13 06:41:31;;;;;;;0.60;0.60;;;;;;;;;;5012416;28;20476;-64
2022/01/13 06:43:57;;;;;;;0.60;0.60;;;;;;;;;;5010650;28;20947;-64
2022/01/13 06:46:23;;;;;;;0.70;0.70;;;;;;;;;;5011077;28;20758;-64
2022/01/13 06:48:50;;;;;;;0.70;0.70;;;;;;;;;;5012017;28;20631;-64
2022/01/13 06:51:16;;;;;;;0.60;0.60;;;;;;;;;;5011459;28;20228;-64
2022/01/13 06:53:42;;;;;;;0.60;0.60;;;;;;;;;;5011672;28;20263;-64
2022/01/13 06:56:08;;;;;;;0.50;0.50;;;;;;;;;;5011724;28;20428;-64
2022/01/13 06:58:34;;;;;;;0.60;0.60;;;;;;;;;;5012065;28;20188;-64
2022/01/13 07:01:00;;;;;;;0.60;0.60;;;;;;;;;;5011323;28;20460;-64
2022/01/13 07:03:26;;;;;;;0.60;0.60;;;;;;;;;;5011960;28;20553;-64
2022/01/13 07:05:52;;;;;;;0.60;0.60;;;;;;;;;;5011366;28;20508;-64
2022/01/13 07:08:18;;;;;;;0.60;0.60;;;;;;;;;;5012085;28;20594;-64
2022/01/13 07:10:45;;;;;;;0.60;0.60;;;;;;;;;;5011138;28;20444;-64
2022/01/13 07:13:11;;;;;;;0.50;0.50;;;;;;;;;;5010121;28;20424;-64
2022/01/13 07:15:37;;;;;;;0.60;0.60;;;;;;;;;;5010435;28;20526;-64
2022/01/13 07:18:03;;;;;;;0.60;0.60;;;;;;;;;;5011673;28;20408;-64
2022/01/13 07:20:29;;;;;;;0.60;0.60;;;;;;;;;;5011831;28;20502;-65
2022/01/13 07:22:55;;;;;;;0.70;0.70;;;;;;;;;;4998413;28;20210;-64
2022/01/13 07:25:21;;;;;;;0.60;0.60;;;;;;;;;;4992372;28;20178;-65
2022/01/13 07:27:47;;;;;;;0.60;0.60;;;;;;;;;;4992388;28;20406;-65
2022/01/13 07:30:13;;;;;;;0.60;0.60;;;;;;;;;;4991660;28;20414;-65
2022/01/13 07:32:40;;;;;;;0.63;0.63;;;;;;;;;;4992707;28;20237;-65
2022/01/13 07:35:06;;;;;;;0.60;0.60;;;;;;;;;;4992451;28;20700;-65
2022/01/13 07:37:32;;;;;;;0.60;0.60;;;;;;;;;;4990784;28;20182;-66
2022/01/13 07:39:58;;;;;;;0.50;0.50;;;;;;;;;;4990616;28;20240;-65
2022/01/13 07:42:25;;;;;;;0.60;0.60;;;;;;;;;;4990751;28;20674;-65
2022/01/13 07:44:52;;;;;;;0.60;0.60;;;;;;;;;;4992196;28;20417;-64
2022/01/13 07:47:18;;;;;;;0.60;0.60;;;;;;;;;;4992043;28;20657;-64
2022/01/13 07:49:44;;;;;;;0.70;0.70;;;;;;;;;;4991343;28;20181;-64
2022/01/13 07:52:11;;;;;;;0.52;0.52;;;;;;;;;;4991911;28;20233;-64
2022/01/13 07:54:37;;;;;;;0.60;0.60;;;;;;;;;;4991777;28;20178;-64
2022/01/13 07:57:03;;;;;;;0.60;0.60;;;;;;;;;;4992024;28;20237;-64
2022/01/13 07:59:30;;;;;;;0.50;0.50;;;;;;;;;;4991934;28;20421;-64
2022/01/13 08:01:57;;;;;;;0.70;0.70;;;;;;;;;;4990905;28;20199;-64
2022/01/13 08:04:23;;;;;;;0.60;0.60;;;;;;;;;;4991365;28;20190;-64
2022/01/13 08:06:49;;;;;;;0.70;0.70;;;;;;;;;;4991759;28;20182;-64
2022/01/13 08:09:15;;;;;;;0.60;0.60;;;;;;;;;;4991720;28;20539;-64
2022/01/13 08:11:41;;;;;;;0.70;0.70;;;;;;;;;;4991273;28;20452;-64
2022/01/13 08:14:07;;;;;;;0.60;0.60;;;;;;;;;;4990968;28;20418;-64
2022/01/13 08:16:35;;;;;;;0.60;0.60;;;;;;;;;;4991596;28;20177;-64
2022/01/13 08:21:46;;;;;;;0.60;0.60;;;;;;;;;;4991383;28;20225;-64
2022/01/13 08:24:12;;;;;;;0.70;0.70;;;;;;;;;;4990893;28;20539;-64
2022/01/13 08:26:38;;;;;;;0.70;0.70;;;;;;;;;;4991338;28;20776;-64
2022/01/13 08:29:04;;;;;;;0.60;0.60;;;;;;;;;;4991729;28;20170;-65
2022/01/13 08:31:30;;;;;;;0.68;0.68;;;;;;;;;;4991666;28;20529;-64
2022/01/13 08:33:56;;;;;;;0.70;0.70;;;;;;;;;;4991075;28;20249;-64
2022/01/13 08:36:22;;;;;;;0.53;0.53;;;;;;;;;;4991302;28;20186;-64
2022/01/13 08:38:49;;;;;;;0.60;0.60;;;;;;;;;;4989841;28;20425;-64
2022/01/13 08:41:15;;;;;;;0.80;0.80;;;;;;;;;;4990375;28;20293;-66
2022/01/13 08:43:41;;;;;;;0.60;0.60;;;;;;;;;;4991269;28;20179;-64
2022/01/13 08:46:07;;;;;;;0.60;0.60;;;;;;;;;;4991510;28;20167;-64
2022/01/13 08:48:34;;;;;;;0.50;0.50;;;;;;;;;;4992370;28;20178;-64
2022/01/13 08:51:00;;;;;;;0.50;0.50;;;;;;;;;;4994949;28;20207;-64
2022/01/13 08:53:26;;;;;;;0.60;0.60;;;;;;;;;;4995010;28;20190;-64
2022/01/13 08:55:54;;;;;;;0.67;0.67;;;;;;;;;;4993725;28;20179;-64
2022/01/13 08:58:22;;;;;;;0.70;0.70;;;;;;;;;;4994874;28;20468;-64
2022/01/13 09:00:49;;;;;;;0.70;0.70;;;;;;;;;;4995056;28;20245;-64
2022/01/13 09:03:15;;;;;;;0.50;0.50;;;;;;;;;;4994801;28;20221;-64
2022/01/13 09:05:42;;;;;;;0.70;0.70;;;;;;;;;;4995208;28;20527;-64
2022/01/13 09:08:10;;;;;;;0.60;0.60;;;;;;;;;;4994814;28;20179;-64
2022/01/13 09:10:38;;;;;;;0.60;0.60;;;;;;;;;;4993395;28;20194;-64
2022/01/13 09:13:04;;;;;;;0.60;0.60;;;;;;;;;;4994578;28;20170;-64
2022/01/13 09:15:38;;;;;;;0.60;0.60;;;;;;;;;;4994735;28;20548;-64
2022/01/13 09:18:11;;;;;;;0.60;0.60;;;;;;;;;;4994909;28;20193;-64
2022/01/13 09:20:38;;;;;;;0.57;0.57;;;;;;;;;;4994671;28;20218;-64
2022/01/13 09:23:04;;;;;;;0.60;0.60;;;;;;;;;;4994583;28;20182;-64
2022/01/13 09:25:30;;;;;;;0.60;0.60;;;;;;;;;;4994871;28;20252;-64
2022/01/13 09:27:56;;;;;;;0.70;0.70;;;;;;;;;;4994641;28;20174;-64
2022/01/13 09:30:23;;;;;;;0.70;0.70;;;;;;;;;;4994513;28;20418;-64
2022/01/13 09:32:49;;;;;;;0.60;0.60;;;;;;;;;;4994228;28;20416;-64
2022/01/13 09:35:15;;;;;;;0.70;0.70;;;;;;;;;;4994499;28;20170;-64
2022/01/13 09:37:41;;;;;;;0.70;0.70;;;;;;;;;;4994236;28;20177;-64
2022/01/13 09:40:09;;;;;;;0.50;0.50;;;;;;;;;;4994409;28;20167;-64
2022/01/13 09:42:36;;;;;;;0.60;0.60;;;;;;;;;;4992800;28;20987;-64
2022/01/13 09:45:03;;;;;;;0.60;0.60;;;;;;;;;;4994264;28;20170;-64
2022/01/13 09:47:30;;;;;;;0.60;0.60;;;;;;;;;;4992944;28;20557;-64
2022/01/13 09:49:56;;;;;;;0.70;0.70;;;;;;;;;;4994228;28;20187;-64
2022/01/13 09:52:22;;;;;;;0.63;0.63;;;;;;;;;;4993964;28;20205;-64
2022/01/13 09:54:48;;;;;;;0.70;0.70;;;;;;;;;;4993887;28;20189;-64
2022/01/13 09:57:14;;;;;;;0.60;0.60;;;;;;;;;;4994006;28;20261;-64
2022/01/13 09:59:41;;;;;;;0.60;0.60;;;;;;;;;;4993991;28;20179;-64
2022/01/13 10:02:07;;;;;;;0.80;0.80;;;;;;;;;;4992934;28;20268;-64
2022/01/13 10:04:46;;;;;;;0.60;0.60;;;;;;;;;;4992517;28;20533;-64
2022/01/13 10:07:17;;;;;;;0.60;0.60;;;;;;;;;;4993786;28;20174;-65
2022/01/13 10:09:53;;;;;;;0.60;0.60;;;;;;;;;;4993051;28;20206;-64
2022/01/13 10:12:40;;;;;;;0.50;0.50;;;;;;;;;;4993852;28;20190;-64
2022/01/13 10:18:01;;;;;;;0.60;0.60;;;;;;;;;;4993768;28;20193;-64
2022/01/13 10:20:28;;;;;;;0.60;0.60;;;;;;;;;;4993828;28;20194;-64
2022/01/13 10:22:54;;;;;;;0.52;0.52;;;;;;;;;;4993708;28;20206;-64
2022/01/13 10:25:34;;;;;;;0.70;0.70;;;;;;;;;;4994472;28;20202;-64
2022/01/13 10:28:12;;;;;;;0.60;0.60;;;;;;;;;;4993331;28;20179;-64
2022/01/13 10:30:39;;;;;;;0.60;0.60;;;;;;;;;;4993486;28;20597;-64
2022/01/13 10:33:25;;;;;;;0.70;0.70;;;;;;;;;;4993243;28;20201;-64
2022/01/13 10:35:52;;;;;;;0.70;0.70;;;;;;;;;;4992903;28;20261;-64
2022/01/13 10:38:19;;;;;;;0.70;0.70;;;;;;;;;;4993143;28;20178;-64
2022/01/13 10:40:47;;;;;;;0.60;0.60;;;;;;;;;;4992576;28;20289;-64
2022/01/13 10:43:15;;;;;;;0.50;0.50;;;;;;;;;;4992868;28;20260;-64
2022/01/13 10:45:45;;;;;;;0.60;0.60;;;;;;;;;;4993186;28;20166;-65
2022/01/13 10:48:13;;;;;;;0.60;0.60;;;;;;;;;;4992766;28;20245;-65
2022/01/13 10:50:55;;;;;;;0.50;0.50;;;;;;;;;;5001271;28;20294;-65
2022/01/13 10:53:24;;;;;;;0.60;0.60;;;;;;;;;;5009127;28;20653;-64
2022/01/13 10:55:55;;;;;;;0.60;0.60;;;;;;;;;;5012600;28;20208;-65
2022/01/13 10:58:27;;;;;;;0.60;0.60;;;;;;;;;;5012634;28;20177;-64
2022/01/13 11:00:53;;;;;;;0.60;0.60;;;;;;;;;;5011854;28;20189;-65
2022/01/13 11:03:27;;;;;;;0.60;0.60;;;;;;;;;;5010808;28;20200;-65
2022/01/13 11:05:54;;;;;;;0.60;0.60;;;;;;;;;;5012540;28;20218;-65
2022/01/13 11:08:22;;;;;;;0.70;0.70;;;;;;;;;;5012633;28;20212;-65
2022/01/13 11:10:49;;;;;;;0.60;0.60;;;;;;;;;;5011962;28;20191;-65
2022/01/13 11:13:19;;;;;;;0.60;0.60;;;;;;;;;;5011156;28;20188;-65
2022/01/13 11:15:50;;;;;;;0.60;0.60;;;;;;;;;;5012055;28;20545;-65
2022/01/13 11:18:16;;;;;;;0.60;0.60;;;;;;;;;;5012231;28;20174;-65
2022/01/13 11:20:42;;;;;;;0.50;0.50;;;;;;;;;;5011834;28;20216;-65
2022/01/13 11:23:08;;;;;;;0.50;0.50;;;;;;;;;;5011313;28;20277;-65
2022/01/13 11:25:36;;;;;;;0.60;0.60;;;;;;;;;;5010558;28;20170;-65
2022/01/13 11:28:03;;;;;;;0.60;0.60;;;;;;;;;;5012175;28;20176;-65
2022/01/13 11:30:29;;;;;;;0.57;0.57;;;;;;;;;;5012042;28;20191;-65
2022/01/13 11:32:56;;;;;;;0.50;0.50;;;;;;;;;;5011698;28;20539;-66
2022/01/13 11:35:29;;;;;;;0.50;0.50;;;;;;;;;;5010091;28;20494;-66
2022/01/13 11:37:59;;;;;;;0.50;0.50;;;;;;;;;;5011684;28;20174;-66
2022/01/13 11:40:28;;;;;;;0.52;0.52;;;;;;;;;;5010719;28;20207;-66
2022/01/13 11:42:55;;;;;;;0.50;0.50;;;;;;;;;;5011655;28;20207;-66
2022/01/13 11:45:21;;;;;;;0.50;0.50;;;;;;;;;;5011509;28;20197;-66
2022/01/13 11:47:48;;;;;;;0.40;0.40;;;;;;;;;;5011471;28;20568;-66
2022/01/13 11:50:20;;;;;;;0.50;0.50;;;;;;;;;;5010214;28;20178;-66
2022/01/13 11:52:51;;;;;;;0.50;0.50;;;;;;;;;;5011450;28;20173;-66
2022/01/13 11:55:28;;;;;;;0.50;0.50;;;;;;;;;;5011748;28;20183;-66
2022/01/13 11:58:14;;;;;;;0.50;0.50;;;;;;;;;;5011629;28;20572;-66
2022/01/13 12:00:40;;;;;;;0.50;0.50;;;;;;;;;;5011605;28;20832;-66
2022/01/13 12:03:21;;;;;;;0.40;0.40;;;;;;;;;;5011246;28;20451;-66
2022/01/13 12:05:47;;;;;;;0.50;0.50;;;;;;;;;;5011951;28;20637;-66
2022/01/13 12:08:32;;;;;;;0.40;0.40;;;;;;;;;;5011876;28;20578;-66
2022/01/13 12:10:58;;;;;;;0.40;0.40;;;;;;;;;;5011519;28;20437;-66
2022/01/13 12:13:31;;;;;;;0.50;0.50;;;;;;;;;;5011336;28;20179;-66
2022/01/13 12:15:58;;;;;;;0.40;0.40;;;;;;;;;;5011575;28;20784;-66
2022/01/13 12:18:42;;;;;;;0.40;0.40;;;;;;;;;;5011128;28;20170;-66
2022/01/13 12:21:24;;;;;;;0.50;0.50;;;;;;;;;;5034077;22;20251;-64
2022/01/13 12:23:50;;;;;;;0.50;0.50;;;;;;;;;;5011175;28;20173;-64
2022/01/13 12:26:31;;;;;;;0.50;0.50;;;;;;;;;;5014831;28;20279;-64
2022/01/13 12:29:23;;;;;;;0.47;0.47;;;;;;;;;;5014588;28;20770;-63
2022/01/13 12:31:58;;;;;;;0.40;0.40;;;;;;;;;;5014582;28;20283;-64
2022/01/13 12:34:33;;;;;;;0.50;0.50;;;;;;;;;;5033965;28;20180;-64
2022/01/13 12:37:11;;;;;;;0.50;0.50;;;;;;;;;;5032627;28;20199;-63
2022/01/13 12:39:44;;;;;;;0.50;0.50;;;;;;;;;;5034134;28;20406;-64
2022/01/13 12:42:15;;;;;;;0.50;0.50;;;;;;;;;;5034092;28;20216;-64
2022/01/13 12:47:26;;;;;;;0.40;0.40;;;;;;;;;;5035379;28;20258;-64
2022/01/13 12:49:53;;;;;;;0.40;0.40;;;;;;;;;;5033950;28;20184;-64
2022/01/13 12:52:20;;;;;;;0.50;0.50;;;;;;;;;;5016711;28;20243;-64
2022/01/13 12:54:46;;;;;;;0.40;0.40;;;;;;;;;;5034193;28;20177;-63
2022/01/13 12:57:13;;;;;;;0.40;0.40;;;;;;;;;;5016482;28;20666;-63
2022/01/13 12:59:39;;;;;;;0.40;0.40;;;;;;;;;;5034349;28;20461;-64
2022/01/13 13:02:05;;;;;;;0.50;0.50;;;;;;;;;;5033895;28;20208;-64
2022/01/13 13:04:34;;;;;;;0.40;0.40;;;;;;;;;;5034044;28;20251;-64
2022/01/13 13:07:01;;;;;;;0.40;0.40;;;;;;;;;;5033768;28;20764;-63
2022/01/13 13:09:29;;;;;;;0.47;0.47;;;;;;;;;;5034046;28;20169;-63
2022/01/13 13:11:57;;;;;;;0.40;0.40;;;;;;;;;;5033861;28;20196;-63
2022/01/13 13:17:32;;;;;;;0.50;0.50;;;;;;;;;;5034144;28;20591;-63
2022/01/13 13:19:58;;;;;;;0.50;0.50;;;;;;;;;;5034168;28;20259;-63
2022/01/13 13:22:24;;;;;;;0.40;0.40;;;;;;;;;;5033656;28;20223;-62
2022/01/13 13:24:50;;;;;;;0.50;0.50;;;;;;;;;;5033649;28;20168;-63
2022/01/13 13:27:28;;;;;;;0.50;0.50;;;;;;;;;;5033651;28;20180;-63
2022/01/13 13:29:54;;;;;;;0.50;0.50;;;;;;;;;;5033709;28;20878;-63
2022/01/13 13:32:20;;;;;;;0.43;0.43;;;;;;;;;;5033855;28;20246;-63
2022/01/13 13:34:46;;;;;;;0.50;0.50;;;;;;;;;;5033181;28;20418;-63
2022/01/13 13:37:12;;;;;;;0.52;0.52;;;;;;;;;;5033669;28;20407;-63
2022/01/13 13:39:38;;;;;;;0.50;0.50;;;;;;;;;;5034287;28;20196;-63
2022/01/13 13:42:06;;;;;;;0.50;0.50;;;;;;;;;;5033162;28;20714;-63
2022/01/13 13:44:37;;;;;;;0.50;0.50;;;;;;;;;;5033120;28;20484;-63
2022/01/13 13:47:07;;;;;;;0.52;0.52;;;;;;;;;;5033427;28;20173;-63
2022/01/13 13:49:34;;;;;;;0.50;0.50;;;;;;;;;;5033360;28;20181;-63
2022/01/13 13:52:04;;;;;;;0.50;0.50;;;;;;;;;;5033072;28;20200;-63
2022/01/13 13:54:52;;;;;;;0.50;0.50;;;;;;;;;;5032614;28;20181;-63
2022/01/13 13:57:19;;;;;;;0.50;0.50;;;;;;;;;;5033314;28;20198;-63
2022/01/13 13:59:48;;;;;;;0.50;0.50;;;;;;;;;;5033028;28;20224;-63
2022/01/13 14:02:19;;;;;;;0.50;0.50;;;;;;;;;;5033035;28;20216;-63
2022/01/13 14:04:45;;;;;;;0.50;0.50;;;;;;;;;;5032909;28;20180;-63
2022/01/13 14:07:21;;;;;;;0.50;0.50;;;;;;;;;;5033049;28;20173;-63
2022/01/13 14:09:52;;;;;;;0.50;0.50;;;;;;;;;;5033235;28;20785;-63
2022/01/13 14:12:38;;;;;;;0.60;0.60;;;;;;;;;;5032555;28;20204;-63
2022/01/13 14:15:13;;;;;;;0.60;0.60;;;;;;;;;;5032430;28;20172;-62
2022/01/13 14:17:39;;;;;;;0.50;0.50;;;;;;;;;;5012670;28;20639;-63
2022/01/13 14:20:06;;;;;;;0.50;0.50;;;;;;;;;;5012109;28;20196;-63
2022/01/13 14:22:32;;;;;;;0.50;0.50;;;;;;;;;;5012649;28;20537;-62
2022/01/13 14:24:58;;;;;;;0.60;0.60;;;;;;;;;;5012537;28;20206;-63
2022/01/13 14:27:26;;;;;;;0.50;0.50;;;;;;;;;;4994974;28;20276;-62
2022/01/13 14:29:52;;;;;;;0.55;0.55;;;;;;;;;;5012696;28;20176;-63
2022/01/13 14:32:26;;;;;;;0.50;0.50;;;;;;;;;;5012665;28;20568;-62
2022/01/13 14:34:53;;;;;;;0.50;0.50;;;;;;;;;;4995048;28;20423;-63
2022/01/13 14:37:19;;;;;;;0.60;0.60;;;;;;;;;;5012545;28;20246;-61
2022/01/13 14:40:05;;;;;;;0.50;0.50;;;;;;;;;;5012377;28;20181;-62
2022/01/13 14:42:32;;;;;;;0.50;0.50;;;;;;;;;;5011925;28;20672;-62
2022/01/13 14:45:16;;;;;;;0.50;0.50;;;;;;;;;;5012476;28;20251;-63
2022/01/13 14:47:43;;;;;;;0.60;0.60;;;;;;;;;;5011624;28;20189;-62
2022/01/13 14:50:09;;;;;;;0.50;0.50;;;;;;;;;;5012423;28;20180;-62
2022/01/13 14:52:35;;;;;;;0.50;0.50;;;;;;;;;;5011986;28;20193;-62
2022/01/13 14:55:01;;;;;;;0.50;0.50;;;;;;;;;;5012128;28;20185;-62
2022/01/13 14:57:27;;;;;;;0.50;0.50;;;;;;;;;;5012252;28;20239;-62
2022/01/13 14:59:53;;;;;;;0.50;0.50;;;;;;;;;;5012108;28;20506;-61
2022/01/13 15:02:19;;;;;;;0.60;0.60;;;;;;;;;;5010543;28;20477;-62
2022/01/13 15:04:45;;;;;;;0.50;0.50;;;;;;;;;;5011887;28;20778;-62
2022/01/13 15:07:11;;;;;;;0.50;0.50;;;;;;;;;;5012061;28;20193;-62
2022/01/13 15:09:37;;;;;;;0.50;0.50;;;;;;;;;;5011842;28;20696;-62
2022/01/13 15:12:03;;;;;;;0.60;0.60;;;;;;;;;;5011746;28;20507;-62
2022/01/13 15:14:29;;;;;;;0.50;0.50;;;;;;;;;;5011680;28;20791;-62
2022/01/13 15:16:55;;;;;;;0.50;0.50;;;;;;;;;;5011907;28;20785;-62